createdAt,value
2018-05-10T00:02:00.999Z,9.60
2018-05-10T00:04:29.359Z,9.50
2018-05-10T00:06:57.706Z,9.37
2018-05-10T00:09:26.064Z,9.77
2018-05-10T00:11:54.508Z,9.10
2018-05-10T00:14:23.219Z,8.63
2018-05-10T00:16:51.557Z,9.33
2018-05-10T00:19:19.916Z,8.90
2018-05-10T00:21:49.268Z,8.70
2018-05-10T00:24:18.439Z,8.90
2018-05-10T00:26:46.896Z,8.83
2018-05-10T00:29:16.178Z,8.93
2018-05-10T00:31:44.534Z,9.93
2018-05-10T00:34:12.871Z,9.13
2018-05-10T00:36:42.031Z,9.30
2018-05-10T00:39:10.383Z,9.10
2018-05-10T00:41:38.728Z,9.87
2018-05-10T00:44:07.322Z,9.53
2018-05-10T00:46:35.725Z,8.67
2018-05-10T00:49:04.069Z,9.93
2018-05-10T00:51:32.606Z,9.90
2018-05-10T00:54:00.954Z,10.43
2018-05-10T00:56:29.337Z,10.03
2018-05-10T00:58:57.687Z,9.07
2018-05-10T01:01:26.807Z,10.30
2018-05-10T01:03:55.202Z,10.63
2018-05-10T01:06:23.550Z,10.63
2018-05-10T01:08:51.949Z,10.57
2018-05-10T01:11:20.294Z,11.07
2018-05-10T01:13:49.504Z,12.07
2018-05-10T01:16:17.853Z,10.40
2018-05-10T01:18:46.219Z,12.10
2018-05-10T01:21:14.742Z,10.73
2018-05-10T01:23:43.307Z,10.83
2018-05-10T01:26:11.647Z,12.07
2018-05-10T01:28:40.503Z,11.13
2018-05-10T01:31:09.119Z,11.33
2018-05-10T01:33:37.517Z,11.23
2018-05-10T01:36:11.855Z,11.10
2018-05-10T01:38:40.249Z,11.30
2018-05-10T01:41:08.675Z,11.40
2018-05-10T01:43:37.043Z,10.33
2018-05-10T01:46:05.407Z,10.93
2018-05-10T01:48:33.846Z,10.73
2018-05-10T01:51:02.210Z,10.67
2018-05-10T01:53:30.567Z,11.40
2018-05-10T01:55:58.939Z,10.53
2018-05-10T01:58:27.322Z,10.87
2018-05-10T02:00:55.755Z,11.80
2018-05-10T02:03:24.082Z,11.33
2018-05-10T02:05:52.466Z,11.50
2018-05-10T02:08:20.856Z,11.73
2018-05-10T02:10:49.190Z,11.83
2018-05-10T02:13:18.415Z,11.70
2018-05-10T02:15:47.310Z,10.53
2018-05-10T02:18:15.675Z,11.30
2018-05-10T02:20:44.035Z,11.93
2018-05-10T02:23:13.166Z,13.17
2018-05-10T02:25:41.527Z,11.73
2018-05-10T02:28:09.875Z,12.13
2018-05-10T02:30:38.983Z,12.10
2018-05-10T02:33:08.104Z,11.40
2018-05-10T02:35:36.452Z,11.87
2018-05-10T02:38:05.722Z,11.80
2018-05-10T02:40:34.076Z,12.03
2018-05-10T02:43:02.423Z,11.83
2018-05-10T02:45:31.612Z,11.30
2018-05-10T02:48:00.812Z,11.33
2018-05-10T02:50:29.941Z,12.33
2018-05-10T02:52:58.308Z,12.80
2018-05-10T02:55:26.672Z,12.43
2018-05-10T02:57:55.792Z,12.57
2018-05-10T03:00:24.163Z,12.17
2018-05-10T03:02:52.552Z,11.70
2018-05-10T03:05:21.019Z,12.60
2018-05-10T03:07:49.370Z,11.63
2018-05-10T03:10:17.756Z,11.30
2018-05-10T03:12:46.132Z,12.57
2018-05-10T03:15:15.250Z,15.63
2018-05-10T03:17:43.855Z,15.33
2018-05-10T03:20:12.745Z,13.57
2018-05-10T03:22:41.123Z,13.27
2018-05-10T03:25:09.868Z,14.40
2018-05-10T03:27:38.349Z,12.60
2018-05-10T03:30:07.496Z,12.93
2018-05-10T03:32:35.894Z,13.70
2018-05-10T03:35:04.294Z,13.37
2018-05-10T03:37:32.671Z,13.20
2018-05-10T03:40:01.020Z,13.57
2018-05-10T03:42:29.388Z,13.03
2018-05-10T03:44:57.777Z,13.87
2018-05-10T03:47:26.156Z,13.80
2018-05-10T03:49:54.697Z,13.03
2018-05-10T03:52:23.066Z,13.03
2018-05-10T03:54:51.812Z,13.27
2018-05-10T03:57:20.207Z,13.13
2018-05-10T03:59:48.573Z,12.77
2018-05-10T04:02:17.437Z,12.30
2018-05-10T04:08:01.101Z,14.00
2018-05-10T04:10:41.362Z,12.97
2018-05-10T04:13:09.855Z,12.63
2018-05-10T04:15:38.395Z,13.70
2018-05-10T04:18:06.766Z,12.07
2018-05-10T04:20:35.187Z,12.53
2018-05-10T04:23:03.529Z,12.20
2018-05-10T04:25:31.910Z,11.60
2018-05-10T04:28:01.162Z,11.23
2018-05-10T04:30:29.847Z,11.57
2018-05-10T04:32:58.181Z,12.17
2018-05-10T04:35:27.293Z,11.10
2018-05-10T04:37:55.844Z,10.83
2018-05-10T04:40:24.564Z,10.70
2018-05-10T04:42:53.259Z,11.00
2018-05-10T04:45:21.741Z,10.00
2018-05-10T04:47:50.311Z,10.80
2018-05-10T04:50:18.694Z,10.47
2018-05-10T04:52:47.087Z,10.03
2018-05-10T04:55:15.473Z,10.27
2018-05-10T04:57:43.863Z,10.50
2018-05-10T05:00:12.338Z,10.23
2018-05-10T05:02:40.733Z,10.30
2018-05-10T05:05:09.078Z,10.93
2018-05-10T05:07:37.482Z,10.90
2018-05-10T05:10:05.866Z,10.53
2018-05-10T05:12:34.826Z,11.57
2018-05-10T05:15:03.207Z,11.30
2018-05-10T05:17:31.880Z,11.03
2018-05-10T05:20:00.290Z,11.23
2018-05-10T05:22:28.667Z,10.67
2018-05-10T05:24:57.020Z,11.17
2018-05-10T05:27:25.427Z,9.93
2018-05-10T05:29:53.781Z,10.33
2018-05-10T05:32:22.241Z,10.67
2018-05-10T05:34:50.613Z,9.80
2018-05-10T05:37:19.229Z,11.13
2018-05-10T05:39:48.608Z,11.17
2018-05-10T05:42:16.937Z,10.47
2018-05-10T05:44:45.279Z,9.87
2018-05-10T05:47:14.605Z,11.00
2018-05-10T05:49:43.167Z,9.70
2018-05-10T05:52:11.558Z,11.70
2018-05-10T05:54:39.973Z,11.10
2018-05-10T05:57:08.473Z,10.83
2018-05-10T05:59:37.127Z,10.03
2018-05-10T06:02:05.667Z,10.33
2018-05-10T06:04:34.077Z,10.23
2018-05-10T06:07:02.442Z,10.47
2018-05-10T06:09:30.822Z,9.17
2018-05-10T06:11:59.181Z,9.50
2018-05-10T06:14:28.350Z,10.63
2018-05-10T06:16:56.878Z,9.97
2018-05-10T06:19:26.037Z,9.57
2018-05-10T06:21:54.688Z,12.40
2018-05-10T06:24:23.067Z,11.93
2018-05-10T06:26:51.436Z,10.70
2018-05-10T06:29:19.814Z,10.03
2018-05-10T06:31:48.442Z,9.37
2018-05-10T06:34:16.797Z,9.23
2018-05-10T06:36:45.139Z,8.83
2018-05-10T06:39:13.579Z,9.70
2018-05-10T06:41:41.932Z,9.73
2018-05-10T06:44:10.530Z,8.07
2018-05-10T06:46:40.035Z,8.53
2018-05-10T06:49:08.595Z,8.17
2018-05-10T06:51:36.972Z,8.20
2018-05-10T06:54:05.335Z,7.60
2018-05-10T06:56:34.559Z,7.40
2018-05-10T06:59:04.083Z,8.30
2018-05-10T07:01:32.458Z,7.80
2018-05-10T07:04:00.829Z,8.17
2018-05-10T07:06:29.285Z,7.80
2018-05-10T07:08:58.323Z,8.17
2018-05-10T07:11:27.015Z,8.70
2018-05-10T07:13:55.642Z,7.25
2018-05-10T07:16:24.782Z,7.20
2018-05-10T07:18:53.971Z,7.40
2018-05-10T07:21:22.383Z,7.47
2018-05-10T07:23:50.903Z,7.33
2018-05-10T07:26:20.407Z,7.37
2018-05-10T07:28:49.530Z,7.00
2018-05-10T07:31:17.950Z,6.78
2018-05-10T07:33:47.472Z,6.73
2018-05-10T07:36:15.919Z,7.25
2018-05-10T07:38:44.524Z,6.87
2018-05-10T07:41:13.843Z,7.43
2018-05-10T07:43:42.688Z,7.00
2018-05-10T07:46:11.371Z,7.05
2018-05-10T07:48:39.708Z,6.13
2018-05-10T07:51:08.233Z,6.50
2018-05-10T07:53:36.561Z,5.90
2018-05-10T07:56:04.928Z,6.50
2018-05-10T07:58:33.267Z,6.40
2018-05-10T08:01:01.995Z,6.55
2018-05-10T08:03:30.369Z,6.40
2018-05-10T08:05:59.432Z,7.22
2018-05-10T08:08:27.792Z,6.22
2018-05-10T08:10:56.463Z,6.90
2018-05-10T08:13:24.901Z,6.68
2018-05-10T08:15:53.252Z,6.50
2018-05-10T08:18:21.706Z,7.30
2018-05-10T08:20:50.075Z,6.03
2018-05-10T08:23:18.431Z,7.00
2018-05-10T08:25:46.803Z,7.03
2018-05-10T08:28:15.149Z,7.05
2018-05-10T08:30:43.614Z,6.75
2018-05-10T08:33:11.986Z,6.80
2018-05-10T08:35:40.397Z,7.03
2018-05-10T08:38:08.743Z,6.00
2018-05-10T08:40:37.109Z,6.20
2018-05-10T08:43:06.252Z,6.95
2018-05-10T08:45:34.602Z,5.93
2018-05-10T08:48:03.001Z,7.07
2018-05-10T08:50:31.361Z,7.65
2018-05-10T08:52:59.841Z,7.18
2018-05-10T08:55:29.187Z,7.03
2018-05-10T08:57:57.536Z,7.37
2018-05-10T09:00:26.116Z,7.07
2018-05-10T09:02:54.480Z,6.47
2018-05-10T09:05:24.020Z,6.55
2018-05-10T09:07:52.364Z,7.28
2018-05-10T09:10:20.738Z,7.30
2018-05-10T09:12:49.873Z,7.20
2018-05-10T09:15:18.204Z,7.07
2018-05-10T09:17:47.333Z,8.15
2018-05-10T09:20:15.707Z,8.15
2018-05-10T09:22:44.815Z,7.40
2018-05-10T09:25:13.157Z,8.55
2018-05-10T09:27:42.275Z,7.80
2018-05-10T09:30:10.619Z,7.70
2018-05-10T09:32:39.098Z,6.82
2018-05-10T09:35:08.238Z,7.50
2018-05-10T09:37:37.242Z,10.57
2018-05-10T09:40:05.586Z,18.67
2018-05-10T09:42:34.710Z,18.05
2018-05-10T09:45:03.086Z,19.58
2018-05-10T09:47:31.443Z,20.83
2018-05-10T09:50:00.556Z,22.65
2018-05-10T09:52:28.927Z,22.62
2018-05-10T09:54:57.322Z,24.30
2018-05-10T09:57:25.687Z,23.70
2018-05-10T09:59:54.222Z,27.70
2018-05-10T10:02:22.568Z,27.73
2018-05-10T10:04:50.945Z,32.95
2018-05-10T10:07:19.323Z,35.53
2018-05-10T10:09:47.715Z,28.90
2018-05-10T10:12:16.099Z,32.85
2018-05-10T10:14:44.470Z,37.35
2018-05-10T10:17:12.875Z,33.42
2018-05-10T10:19:42.096Z,42.38
2018-05-10T10:22:10.455Z,42.38
2018-05-10T10:24:38.894Z,45.25
2018-05-10T10:27:07.297Z,44.30
2018-05-10T10:29:35.664Z,41.92
2018-05-10T10:32:04.005Z,44.25
2018-05-10T10:34:33.167Z,46.72
2018-05-10T10:37:01.494Z,50.90
2018-05-10T10:39:30.404Z,51.15
2018-05-10T10:41:58.752Z,51.92
2018-05-10T10:44:27.877Z,44.22
2018-05-10T10:46:56.822Z,46.22
2018-05-10T10:49:25.189Z,54.25
2018-05-10T10:51:53.630Z,47.90
2018-05-10T10:54:21.983Z,50.70
2018-05-10T10:56:51.127Z,51.83
2018-05-10T10:59:19.522Z,52.05
2018-05-10T11:01:48.006Z,53.78
2018-05-10T11:04:16.407Z,54.55
2018-05-10T11:06:45.596Z,53.05
2018-05-10T11:09:13.966Z,52.33
2018-05-10T11:11:42.306Z,55.90
2018-05-10T11:14:10.788Z,53.55
2018-05-10T11:16:39.171Z,54.83
2018-05-10T11:19:07.538Z,53.40
2018-05-10T11:21:35.985Z,52.97
2018-05-10T11:24:04.402Z,53.92
2018-05-10T11:26:32.741Z,49.30
2018-05-10T11:29:01.863Z,47.78
2018-05-10T11:31:30.315Z,48.95
2018-05-10T11:33:58.759Z,45.58
2018-05-10T11:36:27.126Z,45.10
2018-05-10T11:38:55.483Z,44.75
2018-05-10T11:41:23.895Z,38.88
2018-05-10T11:43:52.239Z,47.88
2018-05-10T11:46:20.599Z,49.80
2018-05-10T11:48:49.745Z,44.22
2018-05-10T11:51:18.162Z,44.78
2018-05-10T11:53:46.505Z,44.63
2018-05-10T11:56:14.859Z,45.10
2018-05-10T11:58:43.258Z,44.97
2018-05-10T12:01:11.645Z,43.35
2018-05-10T12:03:40.016Z,42.08
2018-05-10T12:06:08.401Z,44.65
2018-05-10T12:08:36.739Z,42.65
2018-05-10T12:11:06.235Z,41.97
2018-05-10T12:13:34.687Z,39.67
2018-05-10T12:16:03.188Z,33.85
2018-05-10T12:18:31.907Z,36.22
2018-05-10T12:21:00.340Z,35.83
2018-05-10T12:23:28.847Z,34.60
2018-05-10T12:25:59.612Z,32.90
2018-05-10T12:28:28.011Z,31.00
2018-05-10T12:30:56.385Z,28.73
2018-05-10T12:33:24.769Z,28.30
2018-05-10T12:35:53.146Z,27.50
2018-05-10T12:38:21.520Z,26.15
2018-05-10T12:40:49.887Z,25.80
2018-05-10T12:43:18.261Z,26.20
2018-05-10T12:45:46.610Z,26.40
2018-05-10T12:48:15.174Z,27.67
2018-05-10T12:50:43.650Z,26.20
2018-05-10T12:53:12.001Z,26.33
2018-05-10T12:55:40.541Z,21.35
2018-05-10T12:58:08.896Z,21.53
2018-05-10T13:00:37.497Z,18.40
2018-05-10T13:03:06.704Z,18.67
2018-05-10T13:05:35.179Z,18.47
2018-05-10T13:08:03.548Z,17.43
2018-05-10T13:10:32.016Z,19.50
2018-05-10T13:13:00.410Z,19.53
2018-05-10T13:15:28.766Z,17.67
2018-05-10T13:17:57.315Z,16.70
2018-05-10T13:20:26.555Z,16.67
2018-05-10T13:22:55.054Z,16.80
2018-05-10T13:25:23.515Z,17.77
2018-05-10T13:27:51.879Z,15.57
2018-05-10T13:30:20.221Z,16.77
2018-05-10T13:32:49.388Z,15.47
2018-05-10T13:35:17.734Z,16.40
2018-05-10T13:37:46.307Z,15.30
2018-05-10T13:40:14.671Z,17.27
2018-05-10T13:42:43.034Z,17.37
2018-05-10T13:45:12.184Z,17.23
2018-05-10T13:47:40.629Z,16.90
2018-05-10T13:50:08.986Z,16.40
2018-05-10T13:52:38.112Z,15.90
2018-05-10T13:55:06.487Z,14.80
2018-05-10T13:57:34.869Z,15.20
2018-05-10T14:00:03.271Z,15.73
2018-05-10T14:02:31.653Z,14.67
2018-05-10T14:05:00.947Z,14.93
2018-05-10T14:07:29.306Z,14.07
2018-05-10T14:09:57.667Z,14.13
2018-05-10T14:12:26.968Z,13.53
2018-05-10T14:14:55.414Z,12.20
2018-05-10T14:17:23.764Z,12.30
2018-05-10T14:19:52.146Z,12.03
2018-05-10T14:22:20.523Z,10.60
2018-05-10T14:24:48.905Z,10.57
2018-05-10T14:27:17.258Z,9.93
2018-05-10T14:29:46.451Z,9.43
2018-05-10T14:32:15.608Z,8.60
2018-05-10T14:34:43.958Z,8.90
2018-05-10T14:37:12.374Z,8.00
2018-05-10T14:39:40.839Z,7.87
2018-05-10T14:42:09.177Z,7.10
2018-05-10T14:44:37.587Z,6.67
2018-05-10T14:47:05.956Z,7.17
2018-05-10T14:49:34.558Z,6.73
2018-05-10T14:52:03.125Z,6.70
2018-05-10T14:54:31.782Z,7.27
2018-05-10T14:57:00.495Z,6.63
2018-05-10T14:59:30.787Z,6.37
2018-05-10T15:02:00.149Z,7.00
2018-05-10T15:04:28.578Z,6.70
2018-05-10T15:06:57.810Z,6.07
2018-05-10T15:09:26.298Z,5.77
2018-05-10T15:11:54.641Z,6.47
2018-05-10T15:14:23.778Z,6.70
2018-05-10T15:16:52.215Z,6.53
2018-05-10T15:19:20.590Z,6.50
2018-05-10T15:21:48.920Z,6.67
2018-05-10T15:24:17.297Z,6.27
2018-05-10T15:26:45.725Z,5.87
2018-05-10T15:29:14.076Z,5.43
2018-05-10T15:31:42.551Z,5.13
2018-05-10T15:34:10.879Z,4.70
2018-05-10T15:36:39.228Z,4.60
2018-05-10T15:39:07.708Z,5.00
2018-05-10T15:41:36.130Z,5.10
2018-05-10T15:44:04.474Z,4.70
2018-05-10T15:46:32.810Z,4.37
2018-05-10T15:49:01.143Z,4.80
2018-05-10T15:51:29.487Z,4.93
2018-05-10T15:53:57.841Z,4.50
2018-05-10T15:56:26.220Z,5.03
2018-05-10T15:58:54.657Z,4.77
2018-05-10T16:01:23.811Z,4.57
2018-05-10T16:03:52.156Z,4.50
2018-05-10T16:06:20.549Z,4.97
2018-05-10T16:08:48.891Z,4.43
2018-05-10T16:11:18.153Z,4.40
2018-05-10T16:13:46.488Z,3.77
2018-05-10T16:16:14.903Z,4.53
2018-05-10T16:18:43.256Z,4.00
2018-05-10T16:21:11.759Z,3.47
2018-05-10T16:23:40.140Z,3.23
2018-05-10T16:26:08.484Z,3.40
2018-05-10T16:28:36.835Z,3.60
2018-05-10T16:31:05.265Z,3.47
2018-05-10T16:33:33.665Z,3.70
2018-05-10T16:36:02.751Z,3.90
2018-05-10T16:38:31.101Z,3.23
2018-05-10T16:40:59.461Z,3.70
2018-05-10T16:43:28.790Z,3.63
2018-05-10T16:45:57.131Z,3.63
2018-05-10T16:48:25.565Z,3.50
2018-05-10T16:50:53.898Z,3.87
2018-05-10T16:53:23.273Z,3.50
2018-05-10T16:55:51.617Z,3.50
2018-05-10T16:58:19.967Z,3.67
2018-05-10T17:00:49.098Z,3.60
2018-05-10T17:03:17.460Z,3.70
2018-05-10T17:05:45.858Z,3.43
2018-05-10T17:08:14.235Z,3.27
2018-05-10T17:10:42.810Z,3.57
2018-05-10T17:13:11.153Z,3.47
2018-05-10T17:15:40.403Z,3.87
2018-05-10T17:18:09.499Z,3.17
2018-05-10T17:20:37.929Z,3.20
2018-05-10T17:23:06.295Z,3.70
2018-05-10T17:25:34.637Z,3.03
2018-05-10T17:28:03.018Z,3.37
2018-05-10T17:30:31.552Z,2.93
2018-05-10T17:33:00.137Z,2.73
2018-05-10T17:35:28.486Z,3.13
2018-05-10T17:37:57.348Z,2.87
2018-05-10T17:40:25.715Z,3.17
2018-05-10T17:42:54.240Z,3.07
2018-05-10T17:45:22.880Z,3.17
2018-05-10T17:47:51.709Z,3.43
2018-05-10T17:50:20.138Z,3.50
2018-05-10T17:52:48.558Z,3.73
2018-05-10T17:55:17.141Z,2.90
2018-05-10T17:57:46.373Z,3.17
2018-05-10T18:00:14.783Z,3.40
2018-05-10T18:02:43.401Z,3.63
2018-05-10T18:05:11.786Z,3.63
2018-05-10T18:07:40.262Z,8.23
2018-05-10T18:10:08.872Z,3.43
2018-05-10T18:12:37.234Z,3.27
2018-05-10T18:15:06.580Z,3.90
2018-05-10T18:17:34.971Z,3.63
2018-05-10T18:20:04.269Z,3.23
2018-05-10T18:22:33.664Z,3.60
2018-05-10T18:25:02.014Z,4.33
2018-05-10T18:27:30.460Z,3.93
2018-05-10T18:29:58.787Z,3.93
2018-05-10T18:32:27.233Z,3.50
2018-05-10T18:34:55.809Z,3.57
2018-05-10T18:37:24.172Z,3.53
2018-05-10T18:39:52.524Z,3.07
2018-05-10T18:42:21.633Z,3.30
2018-05-10T18:44:49.995Z,3.40
2018-05-10T18:47:18.350Z,3.77
2018-05-10T18:49:46.683Z,3.10
2018-05-10T18:52:15.068Z,3.57
2018-05-10T18:54:43.472Z,2.67
2018-05-10T18:57:12.014Z,3.30
2018-05-10T18:59:41.196Z,3.23
2018-05-10T19:02:09.620Z,2.90
2018-05-10T19:04:37.974Z,3.17
2018-05-10T19:07:06.307Z,2.97
2018-05-10T19:09:34.667Z,3.40
2018-05-10T19:12:03.095Z,2.90
2018-05-10T19:14:31.470Z,2.93
2018-05-10T19:16:59.825Z,2.93
2018-05-10T19:19:28.150Z,2.60
2018-05-10T19:21:56.532Z,2.87
2018-05-10T19:24:24.907Z,2.77
2018-05-10T19:26:53.307Z,2.90
2018-05-10T19:29:21.688Z,3.27
2018-05-10T19:31:50.039Z,3.33
2018-05-10T19:34:19.215Z,2.67
2018-05-10T19:36:47.580Z,3.10
2018-05-10T19:39:15.916Z,2.80
2018-05-10T19:41:44.307Z,3.30
2018-05-10T19:44:12.635Z,3.13
2018-05-10T19:46:41.852Z,4.03
2018-05-10T19:49:11.074Z,3.40
2018-05-10T19:51:39.524Z,3.23
2018-05-10T19:54:08.686Z,3.53
2018-05-10T19:56:37.132Z,3.50
2018-05-10T19:59:05.379Z,3.40
2018-05-10T20:01:34.516Z,3.20
2018-05-10T20:04:02.858Z,3.40
2018-05-10T20:06:31.957Z,3.60
2018-05-10T20:09:00.303Z,3.40
2018-05-10T20:11:28.808Z,3.57
2018-05-10T20:13:57.939Z,3.27
2018-05-10T20:16:26.291Z,3.70
2018-05-10T20:18:55.575Z,3.47
2018-05-10T20:21:23.920Z,3.70
2018-05-10T20:23:52.311Z,3.53
2018-05-10T20:26:20.675Z,4.00
2018-05-10T20:28:49.089Z,3.77
2018-05-10T20:31:17.450Z,3.67
2018-05-10T20:33:45.808Z,3.47
2018-05-10T20:36:14.164Z,3.73
2018-05-10T20:38:42.518Z,4.20
2018-05-10T20:41:11.622Z,3.73
2018-05-10T20:43:39.975Z,3.70
2018-05-10T20:46:08.347Z,4.30
2018-05-10T20:48:36.827Z,3.93
2018-05-10T20:51:05.178Z,4.00
2018-05-10T20:53:33.546Z,3.93
2018-05-10T20:56:01.944Z,4.67
2018-05-10T20:58:31.019Z,4.37
2018-05-10T21:00:59.400Z,4.00
2018-05-10T21:03:27.742Z,4.13
2018-05-10T21:05:56.094Z,4.33
2018-05-10T21:08:24.536Z,6.20
2018-05-10T21:10:52.889Z,4.23
2018-05-10T21:13:21.402Z,4.40
2018-05-10T21:15:49.747Z,4.97
2018-05-10T21:18:18.875Z,4.10
2018-05-10T21:20:47.220Z,4.57
2018-05-10T21:23:16.470Z,4.83
2018-05-10T21:25:44.681Z,4.93
2018-05-10T21:28:13.095Z,5.03
2018-05-10T21:30:42.215Z,5.33
2018-05-10T21:33:10.753Z,4.63
2018-05-10T21:35:39.232Z,5.60
2018-05-10T21:38:07.568Z,4.73
2018-05-10T21:40:35.923Z,5.37
2018-05-10T21:43:04.263Z,4.77
2018-05-10T21:45:32.712Z,4.77
2018-05-10T21:48:01.033Z,5.07
2018-05-10T21:50:30.151Z,4.73
2018-05-10T21:52:58.623Z,5.00
2018-05-10T21:55:26.971Z,5.07
2018-05-10T21:57:55.347Z,4.70
2018-05-10T22:00:23.708Z,5.23
2018-05-10T22:02:52.066Z,5.17
2018-05-10T22:05:20.400Z,5.40
2018-05-10T22:07:48.768Z,5.27
2018-05-10T22:10:17.877Z,5.37
2018-05-10T22:12:47.048Z,5.93
2018-05-10T22:15:15.510Z,5.70
2018-05-10T22:17:43.882Z,6.00
2018-05-10T22:20:12.256Z,6.10
2018-05-10T22:22:40.635Z,6.13
2018-05-10T22:25:09.791Z,5.80
2018-05-10T22:27:38.890Z,6.90
2018-05-10T22:30:07.508Z,6.03
2018-05-10T22:32:36.152Z,6.63
2018-05-10T22:35:04.514Z,6.63
2018-05-10T22:37:32.863Z,6.17
2018-05-10T22:40:01.198Z,6.80
2018-05-10T22:42:30.942Z,7.00
2018-05-10T22:44:59.307Z,6.67
2018-05-10T22:47:27.649Z,6.60
2018-05-10T22:49:56.024Z,7.13
2018-05-10T22:52:24.385Z,6.57
2018-05-10T22:54:52.793Z,7.00
2018-05-10T22:57:21.150Z,7.27
2018-05-10T22:59:49.693Z,7.50
2018-05-10T23:02:17.944Z,8.03
2018-05-10T23:04:46.308Z,7.40
2018-05-10T23:07:14.735Z,7.10
2018-05-10T23:09:43.139Z,7.40
2018-05-10T23:12:12.256Z,7.27
2018-05-10T23:14:40.559Z,7.00
2018-05-10T23:17:09.762Z,7.33
2018-05-10T23:19:38.902Z,7.90
2018-05-10T23:22:07.268Z,8.03
2018-05-10T23:24:35.746Z,8.20
2018-05-10T23:27:04.098Z,8.80
2018-05-10T23:29:33.350Z,8.47
2018-05-10T23:32:01.686Z,8.17
2018-05-10T23:34:30.045Z,8.20
2018-05-10T23:36:58.470Z,8.30
2018-05-10T23:39:26.817Z,8.53
2018-05-10T23:41:55.170Z,8.67
2018-05-10T23:44:23.539Z,8.80
2018-05-10T23:46:51.990Z,8.00
2018-05-10T23:49:20.370Z,7.97
2018-05-10T23:51:48.742Z,8.70
2018-05-10T23:54:17.171Z,8.03
2018-05-10T23:56:45.698Z,8.13
2018-05-10T23:59:14.121Z,8.30
